Time;durP1;ratioP1;P1;durP2;ratioP2;P2;SDS_P1;SDS_P2;PMS_P1;PMS_P2;Temp;Humidity;BMP_temperature;BMP_pressure;BME280_temperature;BME280_humidity;BME280_pressure;Samples;Min_cycle;Max_cycle;Signal;HPM_P1;HPM_P2
2022/01/27 00:04:02;;;;;;;;;;;;;;;1.14;100.00;98897.16;1567110;91;20203;-85
2022/01/27 00:06:15;;;;;;;;;;;;;;;1.12;100.00;98894.60;1568903;90;24561;-85
2022/01/27 00:08:52;;;;;;;;;;;;;;;1.11;100.00;98898.06;1568651;91;22636;-85
2022/01/27 00:11:14;;;;;;;;;;;;;;;1.10;100.00;98905.81;1569694;90;26057;-85
2022/01/27 00:13:45;;;;;;;;;;;;;;;1.09;100.00;98902.86;1567617;91;25355;-85
2022/01/27 00:16:15;;;;;;;;;;;;;;;1.09;100.00;98904.97;1566569;91;20544;-85
2022/01/27 00:18:43;;;;;;;;;;;;;;;1.11;100.00;98910.09;1567755;91;25131;-85
2022/01/27 00:21:09;;;;;;;;;;;;;;;1.10;100.00;98909.69;1563076;91;22112;-85
2022/01/27 00:23:35;;;;;;;;;;;;;;;1.08;100.00;98908.45;1571789;91;26109;-84
2022/01/27 00:26:01;;;;;;;;;;;;;;;1.10;100.00;98900.22;1566704;91;24556;-85
2022/01/27 00:28:27;;;;;;;;;;;;;;;1.11;100.00;98889.03;1565024;90;20241;-85
2022/01/27 00:30:54;;;;;;;;;;;;;;;1.10;100.00;98881.33;1564895;91;25026;-85
2022/01/27 00:33:20;;;;;;;;;;;;;;;1.08;100.00;98883.13;1569727;91;21994;-85
2022/01/27 00:35:46;;;;;;;;;;;;;;;1.09;100.00;98892.08;1567549;91;26009;-84
2022/01/27 00:38:12;;;;;;;;;;;;;;;1.09;100.00;98897.23;1566570;91;24605;-84
2022/01/27 00:40:40;;;;;;;;;;;;;;;1.11;100.00;98900.63;1567125;91;20242;-85
2022/01/27 00:43:12;;;;;;;;;;;;;;;1.09;100.00;98902.39;1565823;91;25749;-85
2022/01/27 00:45:38;;;;;;;;;;;;;;;1.09;100.00;98900.28;1568629;91;21961;-85
2022/01/27 00:48:05;;;;;;;;;;;;;;;1.07;100.00;98896.89;1570831;91;26207;-85
2022/01/27 00:50:34;;;;;;;;;;;;;;;1.06;100.00;98882.30;1566069;91;24664;-85
2022/01/27 00:53:04;;;;;;;;;;;;;;;1.08;100.00;98885.70;1565654;91;20300;-85
2022/01/27 00:55:33;;;;;;;;;;;;;;;1.08;100.00;98885.27;1569091;91;25007;-85
2022/01/27 00:58:05;;;;;;;;;;;;;;;1.08;100.00;98885.70;1572662;90;22178;-85
2022/01/27 01:00:30;;;;;;;;;;;;;;;1.07;100.00;98887.42;1574620;90;26129;-84
2022/01/27 01:03:02;;;;;;;;;;;;;;;1.07;100.00;98881.42;1573113;90;24427;-84
2022/01/27 01:16:04;;;;;;;;;;;;;;;1.10;100.00;98874.89;1573978;90;24723;-85
2022/01/27 01:34:30;;;;;;;;;;;;;;;1.22;100.00;98864.28;1597498;89;25074;-84
2022/01/27 01:37:05;;;;;;;;;;;;;;;1.20;100.00;98866.89;1597300;89;22698;-84
2022/01/27 01:39:31;;;;;;;;;;;;;;;1.20;100.00;98866.89;1569353;91;26033;-84
2022/01/27 01:41:57;;;;;;;;;;;;;;;1.19;100.00;98861.80;1570649;90;24442;-84
2022/01/27 01:44:24;;;;;;;;;;;;;;;1.16;100.00;98860.56;1589470;89;20270;-84
2022/01/27 01:46:53;;;;;;;;;;;;;;;1.12;100.00;98855.94;1579925;89;25745;-84
2022/01/27 01:49:26;;;;;;;;;;;;;;;1.08;100.00;98855.63;1594661;89;22231;-84
2022/01/27 01:51:50;;;;;;;;;;;;;;;1.08;100.00;98853.05;1583413;89;26073;-85
2022/01/27 01:54:19;;;;;;;;;;;;;;;1.07;100.00;98857.79;1584014;89;24435;-84
2022/01/27 01:56:44;;;;;;;;;;;;;;;1.08;100.00;98854.77;1587143;89;20590;-84
2022/01/27 01:59:11;;;;;;;;;;;;;;;1.07;100.00;98853.92;1593457;88;25110;-84
2022/01/27 02:01:38;;;;;;;;;;;;;;;1.04;100.00;98852.70;1593142;89;22047;-84
2022/01/27 02:04:11;;;;;;;;;;;;;;;1.03;100.00;98847.16;1592530;88;26061;-84
2022/01/27 02:06:38;;;;;;;;;;;;;;;1.04;100.00;98851.41;1587316;89;24583;-84
2022/01/27 02:20:13;;;;;;;;;;;;;;;1.08;100.00;98838.02;1591082;89;25105;-84
2022/01/27 02:22:42;;;;;;;;;;;;;;;1.07;100.00;98829.88;1589535;89;20163;-84
2022/01/27 02:25:09;;;;;;;;;;;;;;;1.08;100.00;98819.55;1573502;89;25446;-84
2022/01/27 02:27:35;;;;;;;;;;;;;;;1.08;100.00;98813.10;1600888;89;22264;-84
2022/01/27 02:30:01;;;;;;;;;;;;;;;1.09;100.00;98809.61;1588612;88;26262;-84
2022/01/27 02:32:27;;;;;;;;;;;;;;;1.08;100.00;98810.52;1587495;89;20264;-84
2022/01/27 02:34:53;;;;;;;;;;;;;;;1.09;100.00;98812.19;1591645;89;20265;-84
2022/01/27 02:37:21;;;;;;;;;;;;;;;1.11;100.00;98800.56;1594516;88;25072;-84
2022/01/27 02:39:47;;;;;;;;;;;;;;;1.12;100.00;98812.13;1595267;88;21975;-84
2022/01/27 02:42:18;;;;;;;;;;;;;;;1.14;100.00;98809.08;1589025;89;26053;-84
2022/01/27 02:44:46;;;;;;;;;;;;;;;1.18;100.00;98795.66;1600852;87;24508;-84
2022/01/27 02:47:12;;;;;;;;;;;;;;;1.18;100.00;98799.08;1591851;88;20248;-84
2022/01/27 02:49:38;;;;;;;;;;;;;;;1.20;100.00;98796.00;1593001;89;25053;-84
2022/01/27 02:52:05;;;;;;;;;;;;;;;1.22;100.00;98795.53;1586847;89;22068;-84
2022/01/27 02:54:35;;;;;;;;;;;;;;;1.21;100.00;98792.55;1593781;88;26100;-85
2022/01/27 02:56:59;;;;;;;;;;;;;;;1.22;100.00;98794.24;1594111;89;24563;-85
2022/01/27 02:59:29;;;;;;;;;;;;;;;1.22;100.00;98792.11;1596331;88;20274;-84
2022/01/27 03:01:59;;;;;;;;;;;;;;;1.22;100.00;98789.09;1588992;89;25793;-84
2022/01/27 03:04:26;;;;;;;;;;;;;;;1.20;100.00;98779.25;1597333;89;22084;-84
2022/01/27 03:06:53;;;;;;;;;;;;;;;1.20;100.00;98781.01;1597748;88;26073;-84
2022/01/27 03:09:19;;;;;;;;;;;;;;;1.20;100.00;98780.53;1595434;89;25473;-84
2022/01/27 03:11:52;;;;;;;;;;;;;;;1.21;100.00;98777.08;1594822;89;20262;-84
2022/01/27 03:14:21;;;;;;;;;;;;;;;1.22;100.00;98789.09;1598880;89;24989;-84
2022/01/27 03:16:47;;;;;;;;;;;;;;;1.23;100.00;98793.36;1593210;89;22068;-84
2022/01/27 03:19:13;;;;;;;;;;;;;;;1.23;100.00;98787.36;1594033;89;25851;-84
2022/01/27 03:21:40;;;;;;;;;;;;;;;1.22;100.00;98783.93;1596141;88;24491;-84
2022/01/27 03:24:06;;;;;;;;;;;;;;;1.22;100.00;98785.22;1592698;88;20334;-84
2022/01/27 03:26:33;;;;;;;;;;;;;;;1.21;100.00;98784.81;1595641;89;25125;-84
2022/01/27 03:28:59;;;;;;;;;;;;;;;1.20;100.00;98783.59;1592772;89;21963;-84
2022/01/27 03:31:26;;;;;;;;;;;;;;;1.18;100.00;98782.33;1594202;89;25947;-84
2022/01/27 03:33:52;;;;;;;;;;;;;;;1.21;100.00;98783.96;1593373;88;24454;-84
2022/01/27 03:36:19;;;;;;;;;;;;;;;1.24;100.00;98781.32;1574741;89;20381;-84
2022/01/27 03:38:45;;;;;;;;;;;;;;;1.24;100.00;98779.59;1596032;88;24989;-84
2022/01/27 03:41:12;;;;;;;;;;;;;;;1.25;100.00;98778.68;1598430;88;21968;-83
2022/01/27 03:43:45;;;;;;;;;;;;;;;1.26;100.00;98778.23;1596806;88;26048;-84
2022/01/27 03:46:11;;;;;;;;;;;;;;;1.28;100.00;98778.20;1592366;89;24436;-84
2022/01/27 03:48:37;;;;;;;;;;;;;;;1.29;100.00;98773.02;1598026;89;20204;-84
2022/01/27 03:51:10;;;;;;;;;;;;;;;1.29;100.00;98764.44;1596027;88;24951;-83
2022/01/27 03:53:36;;;;;;;;;;;;;;;1.28;100.00;98761.45;1580056;89;22210;-84
2022/01/27 03:56:02;;;;;;;;;;;;;;;1.23;100.00;98755.98;1585494;89;21004;-84
2022/01/27 03:58:28;;;;;;;;;;;;;;;1.23;100.00;98768.02;1585961;89;24516;-84
2022/01/27 04:00:57;;;;;;;;;;;;;;;1.21;100.00;98765.92;1584526;89;20305;-84
2022/01/27 04:03:24;;;;;;;;;;;;;;;1.13;100.00;98766.14;1580573;89;24976;-84
2022/01/27 04:05:53;;;;;;;;;;;;;;;1.14;100.00;98771.70;1588805;89;22003;-83
2022/01/27 04:08:18;;;;;;;;;;;;;;;1.10;100.00;98777.80;1582915;89;26022;-84
2022/01/27 04:10:44;;;;;;;;;;;;;;;1.09;100.00;98765.80;1584239;89;24645;-84
2022/01/27 04:13:10;;;;;;;;;;;;;;;1.08;100.00;98760.71;1578135;89;20416;-84
2022/01/27 04:15:37;;;;;;;;;;;;;;;1.09;100.00;98749.52;1585863;89;24975;-84
2022/01/27 04:18:03;;;;;;;;;;;;;;;1.09;100.00;98744.37;1572647;89;22152;-84
2022/01/27 04:20:30;;;;;;;;;;;;;;;1.09;100.00;98743.08;1581959;89;26263;-84
2022/01/27 04:22:56;;;;;;;;;;;;;;;1.08;100.00;98737.08;1576749;89;24484;-84
2022/01/27 04:25:22;;;;;;;;;;;;;;;1.09;100.00;98737.45;1608645;88;20244;-84
2022/01/27 04:27:54;;;;;;;;;;;;;;;1.10;100.00;98735.72;1593926;88;25876;-84
2022/01/27 04:30:25;;;;;;;;;;;;;;;1.13;100.00;98744.23;1584600;89;22090;-84
2022/01/27 04:33:00;;;;;;;;;;;;;;;1.14;100.00;98743.36;1553605;90;21766;-84
2022/01/27 04:35:24;;;;;;;;;;;;;;;1.15;100.00;98756.62;1564674;90;24470;-84
2022/01/27 04:38:06;;;;;;;;;;;;;;;1.15;100.00;98750.61;1553992;90;20674;-84
2022/01/27 04:40:26;;;;;;;;;;;;;;;1.14;100.00;98751.53;1584522;89;25134;-84
2022/01/27 04:45:26;;;;;;;;;;;;;;;1.12;100.00;98745.12;1588556;89;26648;-84
2022/01/27 04:47:53;;;;;;;;;;;;;;;1.12;100.00;98740.41;1576463;90;24473;-84
2022/01/27 04:50:17;;;;;;;;;;;;;;;1.13;100.00;98740.38;1581275;89;20261;-84
2022/01/27 04:52:44;;;;;;;;;;;;;;;1.13;100.00;98738.23;1588401;89;20282;-84
2022/01/27 04:55:18;;;;;;;;;;;;;;;1.11;100.00;98740.00;1594930;88;22054;-83
2022/01/27 04:57:45;;;;;;;;;;;;;;;1.11;100.00;98728.40;1577070;89;26093;-84
2022/01/27 05:00:15;;;;;;;;;;;;;;;1.11;100.00;98730.98;1577861;89;24458;-84
2022/01/27 05:02:50;;;;;;;;;;;;;;;1.10;100.00;98732.70;1583103;90;20266;-84
2022/01/27 05:05:13;;;;;;;;;;;;;;;1.10;100.00;98733.14;1588397;89;25372;-84
2022/01/27 05:07:39;;;;;;;;;;;;;;;1.11;100.00;98729.25;1581350;90;22049;-84
2022/01/27 05:10:13;;;;;;;;;;;;;;;1.09;100.00;98728.43;1578652;90;26034;-84
2022/01/27 05:15:09;;;;;;;;;;;;;;;1.09;100.00;98714.73;1584852;90;20790;-84
2022/01/27 05:17:35;;;;;;;;;;;;;;;1.07;100.00;98717.78;1586483;90;25022;-83
2022/01/27 05:20:01;;;;;;;;;;;;;;;1.07;100.00;98714.77;1590693;90;22031;-83
2022/01/27 05:22:27;;;;;;;;;;;;;;;1.07;100.00;98722.94;1583716;90;26029;-84
2022/01/27 05:24:54;;;;;;;;;;;;;;;1.05;100.00;98724.26;1584724;90;24483;-83
2022/01/27 05:27:20;;;;;;;;;;;;;;;1.07;100.00;98721.20;1579577;90;20645;-84
2022/01/27 05:29:46;;;;;;;;;;;;;;;1.10;100.00;98711.23;1586684;90;24961;-84
2022/01/27 05:32:12;;;;;;;;;;;;;;;1.15;100.00;98713.24;1579798;90;22131;-84
2022/01/27 05:34:38;;;;;;;;;;;;;;;1.17;100.00;98715.34;1581047;90;25949;-84
2022/01/27 05:37:06;;;;;;;;;;;;;;;1.17;100.00;98720.06;1598379;88;20158;-84
2022/01/27 05:39:35;;;;;;;;;;;;;;;1.16;100.00;98706.77;1582997;90;20305;-84
2022/01/27 05:42:07;;;;;;;;;;;;;;;1.16;100.00;98700.77;1595920;89;25138;-84
2022/01/27 05:44:34;;;;;;;;;;;;;;;1.16;100.00;98696.90;1588432;90;21980;-84
2022/01/27 05:47:00;;;;;;;;;;;;;;;1.16;100.00;98688.73;1600918;89;26190;-84
2022/01/27 05:49:26;;;;;;;;;;;;;;;1.18;100.00;98684.83;1608057;89;24616;-84
2022/01/27 05:51:54;;;;;;;;;;;;;;;1.17;100.00;98680.11;1594252;89;20231;-84
2022/01/27 05:54:20;;;;;;;;;;;;;;;1.16;100.00;98674.98;1582256;90;25719;-84
2022/01/27 05:56:49;;;;;;;;;;;;;;;1.17;100.00;98659.94;1582900;90;22607;-84
2022/01/27 05:59:15;;;;;;;;;;;;;;;1.13;100.00;98658.34;1596982;89;26214;-84
2022/01/27 06:01:41;;;;;;;;;;;;;;;1.13;100.00;98656.61;1596345;89;20245;-84
2022/01/27 06:04:07;;;;;;;;;;;;;;;1.12;100.00;98654.06;1594445;89;20388;-84
2022/01/27 06:06:33;;;;;;;;;;;;;;;1.10;100.00;98652.81;1595907;88;25032;-83
2022/01/27 06:08:59;;;;;;;;;;;;;;;1.09;100.00;98648.54;1602454;88;20328;-84
2022/01/27 06:11:25;;;;;;;;;;;;;;;1.07;100.00;98653.36;1597235;89;25974;-83
2022/01/27 06:13:52;;;;;;;;;;;;;;;1.05;100.00;98649.52;1592876;89;24440;-84
2022/01/27 06:16:18;;;;;;;;;;;;;;;1.05;100.00;98653.83;1594508;89;20237;-84
2022/01/27 06:18:44;;;;;;;;;;;;;;;1.03;100.00;98653.90;1602541;89;25032;-84
2022/01/27 06:21:17;;;;;;;;;;;;;;;1.03;100.00;98649.19;1597817;89;22647;-84
2022/01/27 06:23:46;;;;;;;;;;;;;;;1.01;100.00;98650.95;1599588;89;26724;-83
2022/01/27 06:26:12;;;;;;;;;;;;;;;0.98;100.00;98645.45;1593914;89;24451;-84
2022/01/27 06:28:39;;;;;;;;;;;;;;;0.97;100.00;98645.48;1596661;89;20234;-83
2022/01/27 06:31:05;;;;;;;;;;;;;;;0.97;100.00;98647.62;1595282;89;25037;-84
2022/01/27 06:33:31;;;;;;;;;;;;;;;0.94;100.00;98646.41;1596224;89;22068;-84
2022/01/27 06:35:57;;;;;;;;;;;;;;;0.97;100.00;98662.23;1597732;89;26002;-84
2022/01/27 06:38:23;;;;;;;;;;;;;;;0.96;100.00;98649.80;1596096;89;24400;-84
2022/01/27 06:40:49;;;;;;;;;;;;;;;0.97;100.00;98636.03;1594315;89;20637;-83
2022/01/27 06:43:15;;;;;;;;;;;;;;;0.99;100.00;98635.96;1593501;89;24391;-84
2022/01/27 06:45:41;;;;;;;;;;;;;;;0.98;100.00;98645.89;1596683;89;20240;-84
2022/01/27 06:48:07;;;;;;;;;;;;;;;0.98;100.00;98635.59;1594881;89;25981;-84
2022/01/27 06:50:36;;;;;;;;;;;;;;;0.99;100.00;98641.97;1598311;89;24508;-84
2022/01/27 06:53:03;;;;;;;;;;;;;;;0.98;100.00;98649.31;1590965;89;20321;-84
2022/01/27 06:55:29;;;;;;;;;;;;;;;0.98;100.00;98653.63;1598917;89;24941;-84
2022/01/27 06:57:55;;;;;;;;;;;;;;;0.98;100.00;98645.89;1595050;89;21993;-84
2022/01/27 07:00:21;;;;;;;;;;;;;;;0.98;100.00;98653.19;1582464;89;26052;-83
2022/01/27 07:02:54;;;;;;;;;;;;;;;0.99;100.00;98644.98;1563261;89;24542;-83
2022/01/27 07:05:18;;;;;;;;;;;;;;;1.01;100.00;98649.66;1588828;89;20238;-84
2022/01/27 07:07:46;;;;;;;;;;;;;;;1.01;100.00;98646.64;1591441;89;20307;-83
2022/01/27 07:10:12;;;;;;;;;;;;;;;1.03;100.00;98635.02;1587889;89;21932;-84
2022/01/27 07:12:39;;;;;;;;;;;;;;;1.06;100.00;98639.63;1540213;92;25955;-83
2022/01/27 07:15:06;;;;;;;;;;;;;;;1.11;100.00;98633.05;1544980;92;24769;-84
2022/01/27 07:17:32;;;;;;;;;;;;;;;1.13;100.00;98637.72;1545562;92;20262;-83
2022/01/27 07:20:00;;;;;;;;;;;;;;;1.13;100.00;98637.28;1540974;92;21899;-83
2022/01/27 07:22:26;;;;;;;;;;;;;;;1.14;100.00;98635.11;1544092;92;22109;-84
2022/01/27 07:24:52;;;;;;;;;;;;;;;1.15;100.00;98630.33;1544364;91;21081;-84
2022/01/27 07:27:19;;;;;;;;;;;;;;;1.19;100.00;98616.48;1545992;92;24471;-84
2022/01/27 07:29:45;;;;;;;;;;;;;;;1.22;100.00;98612.52;1552720;92;20281;-84
2022/01/27 07:32:25;;;;;;;;;;;;;;;1.25;100.00;98616.75;1552509;92;25020;-84
2022/01/27 07:34:40;;;;;;;;;;;;;;;1.24;100.00;98615.05;1545162;92;22654;-84
2022/01/27 07:37:07;;;;;;;;;;;;;;;1.26;100.00;98615.39;1547363;92;26028;-84
2022/01/27 07:39:33;;;;;;;;;;;;;;;1.24;100.00;98616.34;1546785;92;24382;-84
2022/01/27 07:42:00;;;;;;;;;;;;;;;1.24;100.00;98610.75;1545500;92;20333;-84
2022/01/27 07:44:29;;;;;;;;;;;;;;;1.20;100.00;98610.89;1549237;91;25947;-84
2022/01/27 07:46:57;;;;;;;;;;;;;;;1.18;100.00;98598.48;1547288;92;22184;-84
2022/01/27 07:49:23;;;;;;;;;;;;;;;1.17;100.00;98592.92;1539936;92;26117;-84
2022/01/27 07:51:55;;;;;;;;;;;;;;;1.11;100.00;98595.23;1548970;92;24526;-83
2022/01/27 07:54:25;;;;;;;;;;;;;;;1.11;100.00;98600.39;1548666;92;20334;-84
2022/01/27 07:56:49;;;;;;;;;;;;;;;1.14;100.00;98580.98;1530483;91;26559;-83
2022/01/27 07:59:15;;;;;;;;;;;;;;;1.21;100.00;98588.06;1543901;92;22057;-84
2022/01/27 08:01:41;;;;;;;;;;;;;;;1.25;100.00;98581.48;1578603;90;26134;-84
2022/01/27 08:04:07;;;;;;;;;;;;;;;1.33;100.00;98570.95;1566669;90;24121;-84
2022/01/27 08:06:33;;;;;;;;;;;;;;;1.34;100.00;98575.66;1580753;90;20307;-84
2022/01/27 08:08:59;;;;;;;;;;;;;;;1.34;100.00;98579.53;1583589;90;25030;-84
2022/01/27 08:11:25;;;;;;;;;;;;;;;1.34;100.00;98583.39;1581087;90;22000;-84
2022/01/27 08:13:51;;;;;;;;;;;;;;;1.37;100.00;98576.40;1582830;90;25970;-84
2022/01/27 08:16:18;;;;;;;;;;;;;;;1.42;100.00;98573.70;1582465;90;24516;-84
2022/01/27 08:18:44;;;;;;;;;;;;;;;1.44;100.00;98582.22;1583566;90;20300;-84
2022/01/27 08:21:13;;;;;;;;;;;;;;;1.43;100.00;98581.37;1583363;90;25629;-84
2022/01/27 08:23:42;;;;;;;;;;;;;;;1.44;100.00;98562.88;1584216;90;22085;-84
2022/01/27 08:26:11;;;;;;;;;;;;;;;1.42;100.00;98559.05;1585591;90;26087;-84
2022/01/27 08:28:46;;;;;;;;;;;;;;;1.41;100.00;98545.78;1579947;90;25276;-84
2022/01/27 08:31:08;;;;;;;;;;;;;;;1.37;100.00;98553.20;1584756;90;20364;-84
2022/01/27 08:33:38;;;;;;;;;;;;;;;1.38;100.00;98559.20;1581667;90;24961;-84
2022/01/27 08:36:03;;;;;;;;;;;;;;;1.34;100.00;98555.03;1581220;90;21977;-84
2022/01/27 08:38:30;;;;;;;;;;;;;;;1.34;100.00;98558.46;1585173;90;26163;-84
2022/01/27 08:40:59;;;;;;;;;;;;;;;1.35;100.00;98555.00;1582226;90;24452;-84
2022/01/27 08:43:25;;;;;;;;;;;;;;;1.38;100.00;98579.83;1584050;90;20265;-84
2022/01/27 08:45:52;;;;;;;;;;;;;;;1.38;100.00;98588.84;1582833;90;25112;-84
2022/01/27 08:48:21;;;;;;;;;;;;;;;1.40;100.00;98575.03;1585537;90;22002;-84
2022/01/27 08:50:58;;;;;;;;;;;;;;;1.41;100.00;98568.14;1568831;90;25961;-84
2022/01/27 08:53:18;;;;;;;;;;;;;;;1.44;100.00;98562.44;1584277;90;24363;-84
2022/01/27 08:55:46;;;;;;;;;;;;;;;1.47;100.00;98567.52;1585130;90;20422;-84
2022/01/27 08:58:12;;;;;;;;;;;;;;;1.47;100.00;98558.94;1581808;90;25041;-84
2022/01/27 09:00:39;;;;;;;;;;;;;;;1.45;100.00;98565.86;1582665;89;22007;-84
2022/01/27 09:03:05;;;;;;;;;;;;;;;1.45;100.00;98551.68;1580764;89;26087;-84
2022/01/27 09:05:31;;;;;;;;;;;;;;;1.41;100.00;98557.83;1584014;89;24540;-84
2022/01/27 09:07:57;;;;;;;;;;;;;;;1.38;100.00;98549.73;1585679;89;20339;-84
2022/01/27 09:10:27;;;;;;;;;;;;;;;1.36;100.00;98546.82;1581936;89;25016;-84
2022/01/27 09:12:52;;;;;;;;;;;;;;;1.32;100.00;98546.49;1581302;89;22697;-84
2022/01/27 09:15:21;;;;;;;;;;;;;;;1.30;100.00;98556.03;1587910;89;26850;-84
2022/01/27 09:17:47;;;;;;;;;;;;;;;1.25;100.00;98554.41;1578561;89;20337;-84
2022/01/27 09:20:17;;;;;;;;;;;;;;;1.26;100.00;98553.53;1553744;90;20479;-84
2022/01/27 09:22:43;;;;;;;;;;;;;;;1.28;100.00;98560.37;1577953;89;25825;-83
2022/01/27 09:25:22;;;;;;;;;;;;;;;1.26;100.00;98552.23;1579599;89;21994;-84
2022/01/27 09:27:37;;;;;;;;;;;;;;;1.26;100.00;98571.57;1581042;89;26018;-84
2022/01/27 09:30:03;;;;;;;;;;;;;;;1.25;100.00;98558.28;1588107;89;24508;-84
2022/01/27 09:32:31;;;;;;;;;;;;;;;1.28;100.00;98549.62;1580428;89;20259;-84
2022/01/27 09:34:57;;;;;;;;;;;;;;;1.32;100.00;98568.41;1584271;89;25015;-84
2022/01/27 09:37:23;;;;;;;;;;;;;;;1.35;100.00;98542.55;1583562;89;21944;-84
2022/01/27 09:39:49;;;;;;;;;;;;;;;1.36;100.00;98528.33;1579760;89;26070;-84
2022/01/27 09:42:16;;;;;;;;;;;;;;;1.40;100.00;98520.05;1583156;89;24472;-84
2022/01/27 09:44:46;;;;;;;;;;;;;;;1.42;100.00;98514.41;1575125;89;20225;-84
2022/01/27 09:47:16;;;;;;;;;;;;;;;1.44;100.00;98516.02;1586672;89;25788;-84
2022/01/27 09:49:51;;;;;;;;;;;;;;;1.49;100.00;98498.66;1581993;89;22122;-84
2022/01/27 09:52:09;;;;;;;;;;;;;;;1.54;100.00;98501.09;1579206;89;26090;-84
2022/01/27 09:54:36;;;;;;;;;;;;;;;1.57;100.00;98507.01;1553583;90;24810;-84
2022/01/27 09:57:03;;;;;;;;;;;;;;;1.54;100.00;98499.80;1580977;89;20474;-84
2022/01/27 09:59:29;;;;;;;;;;;;;;;1.50;100.00;98491.77;1580585;89;24984;-84
2022/01/27 10:02:06;;;;;;;;;;;;;;;1.50;100.00;98491.33;1574168;90;21985;-84
2022/01/27 10:04:49;;;;;;;;;;;;;;;1.50;100.00;98484.04;1566131;90;26031;-84
2022/01/27 10:07:17;;;;;;;;;;;;;;;1.48;100.00;98469.05;1572702;90;24875;-84
2022/01/27 10:09:56;;;;;;;;;;;;;;;1.46;100.00;98465.26;1570792;90;20230;-84
2022/01/27 10:12:33;;;;;;;;;;;;;;;1.47;100.00;98459.66;1566940;90;24503;-84
2022/01/27 10:15:00;;;;;;;;;;;;;;;1.50;100.00;98453.09;1571504;90;21969;-84
2022/01/27 10:17:26;;;;;;;;;;;;;;;1.51;100.00;98451.77;1571523;90;26015;-84
2022/01/27 10:19:52;;;;;;;;;;;;;;;1.57;100.00;98450.72;1568832;90;24506;-83
2022/01/27 10:22:23;;;;;;;;;;;;;;;1.60;100.00;98423.08;1568501;90;20244;-84
2022/01/27 10:24:50;;;;;;;;;;;;;;;1.62;100.00;98415.30;1571767;90;25122;-84
2022/01/27 10:27:45;;;;;;;;;;;;;;;1.65;100.00;98410.02;1570878;90;22911;-84
2022/01/27 10:30:35;;;;;;;;;;;;;;;1.66;100.00;98401.39;1572303;90;25990;-84
2022/01/27 10:32:47;;;;;;;;;;;;;;;1.66;100.00;98400.09;1571039;90;24406;-84
2022/01/27 10:35:15;;;;;;;;;;;;;;;1.63;100.00;98405.38;1569541;90;20255;-84
2022/01/27 10:37:55;;;;;;;;;;;;;;;1.56;100.00;98396.16;1567190;90;25049;-83
2022/01/27 10:40:26;;;;;;;;;;;;;;;1.53;100.00;98386.77;1566076;90;22136;-85
2022/01/27 10:43:01;;;;;;;;;;;;;;;1.53;100.00;98389.36;1570043;90;26246;-85
2022/01/27 10:45:27;;;;;;;;;;;;;;;1.57;100.00;98388.83;1570302;90;24519;-84
2022/01/27 10:47:56;;;;;;;;;;;;;;;1.64;100.00;98388.98;1569462;90;20225;-85
2022/01/27 10:50:24;;;;;;;;;;;;;;;1.73;100.00;98384.81;1568629;90;25056;-85
2022/01/27 10:52:56;;;;;;;;;;;;;;;1.77;100.00;98374.77;1570453;90;22081;-84
2022/01/27 10:55:19;;;;;;;;;;;;;;;1.80;100.00;98378.99;1569682;90;26022;-84
2022/01/27 10:57:51;;;;;;;;;;;;;;;1.85;100.00;98372.77;1566967;90;24442;-84
2022/01/27 11:00:16;;;;;;;;;;;;;;;1.91;100.00;98363.49;1567620;90;20255;-84
2022/01/27 11:02:53;;;;;;;;;;;;;;;1.97;100.00;98355.98;1579969;90;24957;-84
2022/01/27 11:05:20;;;;;;;;;;;;;;;1.95;100.00;98376.70;1583302;90;22114;-84
2022/01/27 11:07:47;;;;;;;;;;;;;;;1.95;100.00;98373.28;1584682;90;26202;-84
2022/01/27 11:10:17;;;;;;;;;;;;;;;1.90;100.00;98387.64;1588721;90;25145;-84
2022/01/27 11:12:45;;;;;;;;;;;;;;;1.88;100.00;98380.39;1583792;90;20503;-84
2022/01/27 11:15:17;;;;;;;;;;;;;;;1.89;100.00;98361.44;1567596;90;21877;-84
2022/01/27 11:17:44;;;;;;;;;;;;;;;1.88;100.00;98364.06;1582249;90;21956;-85
2022/01/27 11:20:29;;;;;;;;;;;;;;;1.91;100.00;98355.75;1584557;90;26163;-84
2022/01/27 11:27:58;;;;;;;;;;;;;;;1.89;100.00;98352.41;1596417;88;24964;-84
2022/01/27 11:30:27;;;;;;;;;;;;;;;1.86;100.00;98355.08;1568801;91;22013;-84
2022/01/27 11:33:04;;;;;;;;;;;;;;;1.81;100.00;98344.09;1591679;89;26724;-84
2022/01/27 11:35:31;;;;;;;;;;;;;;;1.77;100.00;98355.87;1597306;88;24441;-85
2022/01/27 11:37:58;;;;;;;;;;;;;;;1.73;100.00;98340.96;1597393;88;20257;-84
2022/01/27 11:40:38;;;;;;;;;;;;;;;1.77;100.00;98345.55;1594646;89;25842;-84
2022/01/27 11:43:06;;;;;;;;;;;;;;;1.78;100.00;98328.73;1569103;91;22071;-85
2022/01/27 11:45:35;;;;;;;;;;;;;;;1.76;100.00;98344.70;1573856;90;26596;-85
2022/01/27 11:48:10;;;;;;;;;;;;;;;1.74;100.00;98343.09;1570947;90;24342;-84
2022/01/27 11:50:53;;;;;;;;;;;;;;;1.69;100.00;98332.47;1565435;90;20496;-84
2022/01/27 11:53:36;;;;;;;;;;;;;;;1.67;100.00;98336.02;1576177;90;25588;-85
2022/01/27 11:56:04;;;;;;;;;;;;;;;1.71;100.00;98316.10;1601385;87;21951;-85
2022/01/27 11:58:47;;;;;;;;;;;;;;;1.74;100.00;98310.85;1581889;89;26791;-84
2022/01/27 12:01:15;;;;;;;;;;;;;;;1.76;100.00;98300.84;1577437;88;25408;-85
2022/01/27 12:03:44;;;;;;;;;;;;;;;1.79;100.00;98302.05;1583280;89;20282;-84
2022/01/27 12:06:14;;;;;;;;;;;;;;;1.79;100.00;98299.47;1582285;88;25079;-84
2022/01/27 12:08:43;;;;;;;;;;;;;;;1.81;100.00;98292.94;1574163;89;22679;-85
2022/01/27 12:11:11;;;;;;;;;;;;;;;1.85;100.00;98307.43;1581238;89;26253;-84
2022/01/27 12:13:48;;;;;;;;;;;;;;;1.83;100.00;98294.58;1586170;89;24632;-84
2022/01/27 12:19:00;;;;;;;;;;;;;;;1.87;100.00;98296.14;1583440;89;25013;-84
2022/01/27 12:21:39;;;;;;;;;;;;;;;1.89;100.00;98289.19;1584157;89;22008;-84
2022/01/27 12:24:19;;;;;;;;;;;;;;;1.91;100.00;98280.11;1585576;89;26060;-84
2022/01/27 12:26:58;;;;;;;;;;;;;;;1.90;100.00;98279.27;1588299;89;24485;-84
2022/01/27 12:29:35;;;;;;;;;;;;;;;1.94;100.00;98264.50;1584410;89;20234;-85
2022/01/27 12:32:05;;;;;;;;;;;;;;;1.93;100.00;98263.66;1583493;88;24999;-84
2022/01/27 12:34:32;;;;;;;;;;;;;;;1.93;100.00;98261.08;1592945;89;22057;-85
2022/01/27 12:37:03;;;;;;;;;;;;;;;1.95;100.00;98271.35;1582830;89;26151;-84
2022/01/27 12:39:31;;;;;;;;;;;;;;;1.95;100.00;98260.58;1587818;88;25465;-84
2022/01/27 12:41:58;;;;;;;;;;;;;;;1.93;100.00;98257.66;1581753;89;20332;-85
2022/01/27 12:44:26;;;;;;;;;;;;;;;1.90;100.00;98253.47;1583017;89;24992;-84
2022/01/27 12:47:06;;;;;;;;;;;;;;;1.88;100.00;98245.38;1582573;89;22107;-85
2022/01/27 12:49:41;;;;;;;;;;;;;;;1.89;100.00;98249.64;1578339;89;26068;-84
2022/01/27 12:52:11;;;;;;;;;;;;;;;1.90;100.00;98241.02;1576250;89;25153;-84
2022/01/27 12:54:39;;;;;;;;;;;;;;;1.89;100.00;98240.17;1577604;89;20252;-84
2022/01/27 12:57:05;;;;;;;;;;;;;;;1.88;100.00;98235.06;1584739;89;25202;-84
2022/01/27 12:59:38;;;;;;;;;;;;;;;1.82;100.00;98229.69;1554875;89;20180;-84
2022/01/27 13:02:06;;;;;;;;;;;;;;;1.83;100.00;98226.20;1585868;88;25985;-84
2022/01/27 13:04:33;;;;;;;;;;;;;;;1.83;100.00;98212.02;1590871;89;24449;-85
2022/01/27 13:06:59;;;;;;;;;;;;;;;1.85;100.00;98197.33;1590406;89;20173;-84
2022/01/27 13:09:27;;;;;;;;;;;;;;;1.86;100.00;98202.86;1596473;89;25091;-84
2022/01/27 13:11:55;;;;;;;;;;;;;;;1.89;100.00;98206.62;1593420;89;22067;-84
2022/01/27 13:14:22;;;;;;;;;;;;;;;1.87;100.00;98200.67;1599328;89;25991;-84
2022/01/27 13:16:58;;;;;;;;;;;;;;;1.86;100.00;98177.50;1596752;89;24491;-84
2022/01/27 13:19:32;;;;;;;;;;;;;;;1.86;100.00;98187.37;1592486;89;20218;-84
2022/01/27 13:22:05;;;;;;;;;;;;;;;1.83;100.00;98172.03;1597155;89;25623;-84
2022/01/27 13:24:34;;;;;;;;;;;;;;;1.78;100.00;98174.40;1596010;89;21947;-84
2022/01/27 13:27:04;;;;;;;;;;;;;;;1.75;100.00;98154.70;1594388;89;26857;-85
2022/01/27 13:29:32;;;;;;;;;;;;;;;1.74;100.00;98166.40;1596661;89;24516;-84
2022/01/27 13:31:59;;;;;;;;;;;;;;;1.73;100.00;98163.42;1601853;88;20472;-84
2022/01/27 13:34:25;;;;;;;;;;;;;;;1.70;100.00;98152.76;1594711;89;25200;-84
2022/01/27 13:36:57;;;;;;;;;;;;;;;1.72;100.00;98157.42;1598361;89;22174;-84
2022/01/27 13:39:36;;;;;;;;;;;;;;;1.70;100.00;98164.37;1599725;89;26761;-84
2022/01/27 13:41:52;;;;;;;;;;;;;;;1.67;100.00;98162.77;1599817;88;24471;-84
2022/01/27 13:44:19;;;;;;;;;;;;;;;1.67;100.00;98159.34;1600837;89;20524;-84
2022/01/27 13:46:59;;;;;;;;;;;;;;;1.67;100.00;98152.45;1592938;89;24416;-84